sensor_id;sensor_type;location;lat;lon;timestamp;temperature;humidity
48043;DHT22;33988;47.992;8.820;2023-02-28T00:01:34;3.90;51.30
48043;DHT22;33988;47.992;8.820;2023-02-28T00:04:03;3.90;51.40
48043;DHT22;33988;47.992;8.820;2023-02-28T00:06:30;3.90;51.40
48043;DHT22;33988;47.992;8.820;2023-02-28T00:09:02;3.90;51.50
48043;DHT22;33988;47.992;8.820;2023-02-28T00:11:29;3.80;51.40
48043;DHT22;33988;47.992;8.820;2023-02-28T00:13:57;3.80;51.40
48043;DHT22;33988;47.992;8.820;2023-02-28T00:16:25;3.90;51.50
48043;DHT22;33988;47.992;8.820;2023-02-28T00:18:54;3.80;51.50
48043;DHT22;33988;47.992;8.820;2023-02-28T00:21:21;3.80;51.60
48043;DHT22;33988;47.992;8.820;2023-02-28T00:23:48;3.80;51.70
48043;DHT22;33988;47.992;8.820;2023-02-28T00:26:15;3.80;51.80
48043;DHT22;33988;47.992;8.820;2023-02-28T00:28:47;3.80;51.80
48043;DHT22;33988;47.992;8.820;2023-02-28T00:31:15;3.90;51.90
48043;DHT22;33988;47.992;8.820;2023-02-28T00:33:42;3.90;51.90
48043;DHT22;33988;47.992;8.820;2023-02-28T00:36:11;3.90;51.90
48043;DHT22;33988;47.992;8.820;2023-02-28T00:38:40;3.90;51.90
48043;DHT22;33988;47.992;8.820;2023-02-28T00:41:09;3.90;51.80
48043;DHT22;33988;47.992;8.820;2023-02-28T00:43:37;3.90;51.90
48043;DHT22;33988;47.992;8.820;2023-02-28T00:46:06;3.90;51.90
48043;DHT22;33988;47.992;8.820;2023-02-28T00:48:34;3.90;51.90
48043;DHT22;33988;47.992;8.820;2023-02-28T00:51:04;3.90;51.90
48043;DHT22;33988;47.992;8.820;2023-02-28T00:53:38;3.90;51.90
48043;DHT22;33988;47.992;8.820;2023-02-28T00:56:10;3.90;51.90
48043;DHT22;33988;47.992;8.820;2023-02-28T00:58:37;3.90;52.00
48043;DHT22;33988;47.992;8.820;2023-02-28T01:01:04;3.90;51.90
48043;DHT22;33988;47.992;8.820;2023-02-28T01:03:34;3.90;52.00
48043;DHT22;33988;47.992;8.820;2023-02-28T01:06:06;3.90;51.90
48043;DHT22;33988;47.992;8.820;2023-02-28T01:08:39;3.90;52.00
48043;DHT22;33988;47.992;8.820;2023-02-28T01:11:11;3.90;52.00
48043;DHT22;33988;47.992;8.820;2023-02-28T01:13:44;3.90;52.10
48043;DHT22;33988;47.992;8.820;2023-02-28T01:16:12;3.90;52.10
48043;DHT22;33988;47.992;8.820;2023-02-28T01:18:42;3.70;52.30
48043;DHT22;33988;47.992;8.820;2023-02-28T01:21:12;3.80;52.00
48043;DHT22;33988;47.992;8.820;2023-02-28T01:23:41;3.80;52.10
48043;DHT22;33988;47.992;8.820;2023-02-28T01:26:19;3.80;52.10
48043;DHT22;33988;47.992;8.820;2023-02-28T01:28:48;3.80;52.20
48043;DHT22;33988;47.992;8.820;2023-02-28T01:31:17;3.70;52.10
48043;DHT22;33988;47.992;8.820;2023-02-28T01:33:48;3.70;52.10
48043;DHT22;33988;47.992;8.820;2023-02-28T01:36:20;3.70;52.20
48043;DHT22;33988;47.992;8.820;2023-02-28T01:38:49;3.70;52.30
48043;DHT22;33988;47.992;8.820;2023-02-28T01:41:20;3.70;52.30
48043;DHT22;33988;47.992;8.820;2023-02-28T01:46:16;3.70;52.30
48043;DHT22;33988;47.992;8.820;2023-02-28T01:48:50;3.70;52.40
48043;DHT22;33988;47.992;8.820;2023-02-28T01:51:48;3.70;52.40
48043;DHT22;33988;47.992;8.820;2023-02-28T01:54:26;3.70;52.60
48043;DHT22;33988;47.992;8.820;2023-02-28T01:57:09;3.70;52.40
48043;DHT22;33988;47.992;8.820;2023-02-28T01:59:51;3.70;52.40
48043;DHT22;33988;47.992;8.820;2023-02-28T02:02:22;3.70;52.50
48043;DHT22;33988;47.992;8.820;2023-02-28T02:04:56;3.70;52.40
48043;DHT22;33988;47.992;8.820;2023-02-28T02:07:41;3.70;52.40
48043;DHT22;33988;47.992;8.820;2023-02-28T02:10:33;3.80;52.50
48043;DHT22;33988;47.992;8.820;2023-02-28T02:16:25;3.80;52.50
48043;DHT22;33988;47.992;8.820;2023-02-28T02:30:09;3.70;52.50
48043;DHT22;33988;47.992;8.820;2023-02-28T02:36:14;3.70;52.50
48043;DHT22;33988;47.992;8.820;2023-02-28T02:38:49;3.70;52.40
48043;DHT22;33988;47.992;8.820;2023-02-28T02:46:34;3.60;52.30
48043;DHT22;33988;47.992;8.820;2023-02-28T02:49:06;3.70;52.30
48043;DHT22;33988;47.992;8.820;2023-02-28T02:51:38;3.70;52.30
48043;DHT22;33988;47.992;8.820;2023-02-28T02:54:33;3.70;52.40
48043;DHT22;33988;47.992;8.820;2023-02-28T02:57:08;3.70;52.40
48043;DHT22;33988;47.992;8.820;2023-02-28T02:59:40;3.70;52.40
48043;DHT22;33988;47.992;8.820;2023-02-28T03:02:12;3.70;52.40
48043;DHT22;33988;47.992;8.820;2023-02-28T03:04:51;3.70;52.40
48043;DHT22;33988;47.992;8.820;2023-02-28T03:07:24;3.70;52.50
48043;DHT22;33988;47.992;8.820;2023-02-28T03:09:56;3.70;52.40
48043;DHT22;33988;47.992;8.820;2023-02-28T03:12:27;3.70;52.30
48043;DHT22;33988;47.992;8.820;2023-02-28T03:15:04;3.60;52.50
48043;DHT22;33988;47.992;8.820;2023-02-28T03:20:11;3.70;52.30
48043;DHT22;33988;47.992;8.820;2023-02-28T03:26:00;3.60;52.40
48043;DHT22;33988;47.992;8.820;2023-02-28T03:31:23;3.70;52.20
48043;DHT22;33988;47.992;8.820;2023-02-28T03:34:11;3.70;52.20
48043;DHT22;33988;47.992;8.820;2023-02-28T03:36:46;3.70;52.30
48043;DHT22;33988;47.992;8.820;2023-02-28T03:39:20;3.80;52.30
48043;DHT22;33988;47.992;8.820;2023-02-28T03:41:57;3.80;52.20
48043;DHT22;33988;47.992;8.820;2023-02-28T03:44:34;3.80;52.30
48043;DHT22;33988;47.992;8.820;2023-02-28T03:50:08;3.80;52.20
48043;DHT22;33988;47.992;8.820;2023-02-28T03:52:45;3.80;52.20
48043;DHT22;33988;47.992;8.820;2023-02-28T03:55:17;3.80;52.20
48043;DHT22;33988;47.992;8.820;2023-02-28T03:57:58;3.80;52.10
48043;DHT22;33988;47.992;8.820;2023-02-28T04:00:34;3.80;52.10
48043;DHT22;33988;47.992;8.820;2023-02-28T04:03:04;3.80;52.10
48043;DHT22;33988;47.992;8.820;2023-02-28T04:05:32;3.90;52.10
48043;DHT22;33988;47.992;8.820;2023-02-28T04:08:07;3.90;52.10
48043;DHT22;33988;47.992;8.820;2023-02-28T04:10:34;3.80;52.10
48043;DHT22;33988;47.992;8.820;2023-02-28T04:13:01;3.80;52.10
48043;DHT22;33988;47.992;8.820;2023-02-28T04:15:29;3.90;52.20
48043;DHT22;33988;47.992;8.820;2023-02-28T04:17:56;3.90;52.20
48043;DHT22;33988;47.992;8.820;2023-02-28T04:20:23;3.90;52.20
48043;DHT22;33988;47.992;8.820;2023-02-28T04:22:50;3.90;52.20
48043;DHT22;33988;47.992;8.820;2023-02-28T04:25:17;3.90;52.10
48043;DHT22;33988;47.992;8.820;2023-02-28T04:27:45;3.90;52.10
48043;DHT22;33988;47.992;8.820;2023-02-28T04:30:12;3.90;52.10
48043;DHT22;33988;47.992;8.820;2023-02-28T04:32:41;3.90;52.10
48043;DHT22;33988;47.992;8.820;2023-02-28T04:35:09;3.90;52.10
48043;DHT22;33988;47.992;8.820;2023-02-28T04:37:38;3.90;52.00
48043;DHT22;33988;47.992;8.820;2023-02-28T04:40:10;3.90;52.00
48043;DHT22;33988;47.992;8.820;2023-02-28T04:42:37;3.90;52.00
48043;DHT22;33988;47.992;8.820;2023-02-28T04:45:07;3.90;52.00
48043;DHT22;33988;47.992;8.820;2023-02-28T04:47:37;3.90;52.00
48043;DHT22;33988;47.992;8.820;2023-02-28T04:50:06;3.90;52.00
48043;DHT22;33988;47.992;8.820;2023-02-28T04:52:34;3.90;52.00
48043;DHT22;33988;47.992;8.820;2023-02-28T04:55:00;3.90;52.00
48043;DHT22;33988;47.992;8.820;2023-02-28T04:57:28;3.90;52.00
48043;DHT22;33988;47.992;8.820;2023-02-28T04:59:56;3.90;52.00
48043;DHT22;33988;47.992;8.820;2023-02-28T05:02:23;3.90;52.00
48043;DHT22;33988;47.992;8.820;2023-02-28T05:04:52;3.90;52.00
48043;DHT22;33988;47.992;8.820;2023-02-28T05:07:19;3.90;52.00
48043;DHT22;33988;47.992;8.820;2023-02-28T05:09:46;3.90;52.00
48043;DHT22;33988;47.992;8.820;2023-02-28T05:12:16;3.90;51.90
48043;DHT22;33988;47.992;8.820;2023-02-28T05:14:45;3.90;51.90
48043;DHT22;33988;47.992;8.820;2023-02-28T05:17:17;3.90;52.00
48043;DHT22;33988;47.992;8.820;2023-02-28T05:19:46;3.90;52.00
48043;DHT22;33988;47.992;8.820;2023-02-28T05:22:15;3.90;52.00
48043;DHT22;33988;47.992;8.820;2023-02-28T05:24:43;3.90;52.00
48043;DHT22;33988;47.992;8.820;2023-02-28T05:27:10;3.90;51.90
48043;DHT22;33988;47.992;8.820;2023-02-28T05:29:37;3.90;51.90
48043;DHT22;33988;47.992;8.820;2023-02-28T05:32:10;3.80;51.90
48043;DHT22;33988;47.992;8.820;2023-02-28T05:34:38;3.80;51.90
48043;DHT22;33988;47.992;8.820;2023-02-28T05:37:10;3.80;52.00
48043;DHT22;33988;47.992;8.820;2023-02-28T05:39:38;3.80;52.00
48043;DHT22;33988;47.992;8.820;2023-02-28T05:42:05;3.80;52.00
48043;DHT22;33988;47.992;8.820;2023-02-28T05:44:33;3.80;52.00
48043;DHT22;33988;47.992;8.820;2023-02-28T05:47:00;3.80;51.90
48043;DHT22;33988;47.992;8.820;2023-02-28T05:49:29;3.80;51.90
48043;DHT22;33988;47.992;8.820;2023-02-28T05:51:56;3.80;51.80
48043;DHT22;33988;47.992;8.820;2023-02-28T05:54:23;3.80;51.90
48043;DHT22;33988;47.992;8.820;2023-02-28T05:56:50;3.70;51.90
48043;DHT22;33988;47.992;8.820;2023-02-28T05:59:17;3.70;51.90
48043;DHT22;33988;47.992;8.820;2023-02-28T06:01:46;3.70;51.80
48043;DHT22;33988;47.992;8.820;2023-02-28T06:04:18;3.70;51.90
48043;DHT22;33988;47.992;8.820;2023-02-28T06:07:00;3.70;51.90
48043;DHT22;33988;47.992;8.820;2023-02-28T06:09:30;3.60;52.00
48043;DHT22;33988;47.992;8.820;2023-02-28T06:11:58;3.60;52.00
48043;DHT22;33988;47.992;8.820;2023-02-28T06:14:29;3.60;52.10
48043;DHT22;33988;47.992;8.820;2023-02-28T06:16:58;3.60;52.10
48043;DHT22;33988;47.992;8.820;2023-02-28T06:19:26;3.70;52.20
48043;DHT22;33988;47.992;8.820;2023-02-28T06:21:54;3.70;52.20
48043;DHT22;33988;47.992;8.820;2023-02-28T06:24:24;3.70;52.20
48043;DHT22;33988;47.992;8.820;2023-02-28T06:26:54;3.70;52.20
48043;DHT22;33988;47.992;8.820;2023-02-28T06:29:21;3.70;52.30
48043;DHT22;33988;47.992;8.820;2023-02-28T06:31:48;3.70;52.20
48043;DHT22;33988;47.992;8.820;2023-02-28T06:34:17;3.80;52.20
48043;DHT22;33988;47.992;8.820;2023-02-28T06:36:44;3.80;52.20
48043;DHT22;33988;47.992;8.820;2023-02-28T06:39:14;3.80;52.20
48043;DHT22;33988;47.992;8.820;2023-02-28T06:41:43;3.80;52.10
48043;DHT22;33988;47.992;8.820;2023-02-28T06:44:21;3.80;52.10
48043;DHT22;33988;47.992;8.820;2023-02-28T06:46:49;3.80;52.10
48043;DHT22;33988;47.992;8.820;2023-02-28T06:49:16;3.80;52.10
48043;DHT22;33988;47.992;8.820;2023-02-28T06:51:44;3.80;52.20
48043;DHT22;33988;47.992;8.820;2023-02-28T06:54:18;3.80;52.20
48043;DHT22;33988;47.992;8.820;2023-02-28T06:56:45;3.80;52.20
48043;DHT22;33988;47.992;8.820;2023-02-28T06:59:13;3.80;52.20
48043;DHT22;33988;47.992;8.820;2023-02-28T07:01:45;3.80;52.20
48043;DHT22;33988;47.992;8.820;2023-02-28T07:04:12;3.80;52.20
48043;DHT22;33988;47.992;8.820;2023-02-28T07:06:42;3.80;52.20
48043;DHT22;33988;47.992;8.820;2023-02-28T07:09:11;3.80;52.20
48043;DHT22;33988;47.992;8.820;2023-02-28T07:11:38;3.90;52.30
48043;DHT22;33988;47.992;8.820;2023-02-28T07:14:09;3.90;52.20
48043;DHT22;33988;47.992;8.820;2023-02-28T07:16:36;3.90;52.30
48043;DHT22;33988;47.992;8.820;2023-02-28T07:19:05;3.90;52.30
48043;DHT22;33988;47.992;8.820;2023-02-28T07:21:35;3.90;52.30
48043;DHT22;33988;47.992;8.820;2023-02-28T07:24:04;3.90;52.20
48043;DHT22;33988;47.992;8.820;2023-02-28T07:26:31;3.90;52.30
48043;DHT22;33988;47.992;8.820;2023-02-28T07:29:00;3.90;52.30
48043;DHT22;33988;47.992;8.820;2023-02-28T07:31:29;4.00;52.40
48043;DHT22;33988;47.992;8.820;2023-02-28T07:33:59;4.00;52.30
48043;DHT22;33988;47.992;8.820;2023-02-28T07:36:26;4.00;52.30
48043;DHT22;33988;47.992;8.820;2023-02-28T07:38:53;4.00;52.20
48043;DHT22;33988;47.992;8.820;2023-02-28T07:41:21;4.00;52.20
48043;DHT22;33988;47.992;8.820;2023-02-28T07:43:53;4.00;52.20
48043;DHT22;33988;47.992;8.820;2023-02-28T07:46:21;4.10;52.30
48043;DHT22;33988;47.992;8.820;2023-02-28T07:48:48;4.00;52.30
48043;DHT22;33988;47.992;8.820;2023-02-28T07:51:15;4.10;52.30
48043;DHT22;33988;47.992;8.820;2023-02-28T07:53:42;4.00;52.10
48043;DHT22;33988;47.992;8.820;2023-02-28T07:56:09;4.10;52.00
48043;DHT22;33988;47.992;8.820;2023-02-28T07:58:39;4.00;52.00
48043;DHT22;33988;47.992;8.820;2023-02-28T08:01:09;4.00;52.10
48043;DHT22;33988;47.992;8.820;2023-02-28T08:03:39;4.00;52.20
48043;DHT22;33988;47.992;8.820;2023-02-28T08:06:11;4.00;52.20
48043;DHT22;33988;47.992;8.820;2023-02-28T08:08:48;4.10;52.30
48043;DHT22;33988;47.992;8.820;2023-02-28T08:11:16;4.00;52.20
48043;DHT22;33988;47.992;8.820;2023-02-28T08:13:44;4.10;52.20
48043;DHT22;33988;47.992;8.820;2023-02-28T08:16:14;4.10;52.20
48043;DHT22;33988;47.992;8.820;2023-02-28T08:18:52;4.10;52.20
48043;DHT22;33988;47.992;8.820;2023-02-28T08:21:21;4.10;52.30
48043;DHT22;33988;47.992;8.820;2023-02-28T08:23:49;4.10;52.30
48043;DHT22;33988;47.992;8.820;2023-02-28T08:26:17;4.20;52.30
48043;DHT22;33988;47.992;8.820;2023-02-28T08:28:45;4.20;52.20
48043;DHT22;33988;47.992;8.820;2023-02-28T08:31:14;4.20;52.20
48043;DHT22;33988;47.992;8.820;2023-02-28T08:33:44;4.20;52.20
48043;DHT22;33988;47.992;8.820;2023-02-28T08:36:12;4.20;52.30
48043;DHT22;33988;47.992;8.820;2023-02-28T08:38:41;4.30;52.30
48043;DHT22;33988;47.992;8.820;2023-02-28T08:41:12;4.30;52.30
48043;DHT22;33988;47.992;8.820;2023-02-28T08:43:40;4.30;52.30
48043;DHT22;33988;47.992;8.820;2023-02-28T08:46:09;4.30;52.30
48043;DHT22;33988;47.992;8.820;2023-02-28T08:48:41;4.40;52.30
48043;DHT22;33988;47.992;8.820;2023-02-28T08:51:10;4.40;52.30
48043;DHT22;33988;47.992;8.820;2023-02-28T08:53:39;4.40;52.20
48043;DHT22;33988;47.992;8.820;2023-02-28T08:56:09;4.40;52.20
48043;DHT22;33988;47.992;8.820;2023-02-28T08:58:38;4.40;52.20
48043;DHT22;33988;47.992;8.820;2023-02-28T09:01:12;4.40;52.10
48043;DHT22;33988;47.992;8.820;2023-02-28T09:03:44;4.40;52.10
48043;DHT22;33988;47.992;8.820;2023-02-28T09:06:14;4.50;52.20
48043;DHT22;33988;47.992;8.820;2023-02-28T09:08:42;4.40;52.00
48043;DHT22;33988;47.992;8.820;2023-02-28T09:11:10;4.50;52.20
48043;DHT22;33988;47.992;8.820;2023-02-28T09:13:37;4.50;52.20
48043;DHT22;33988;47.992;8.820;2023-02-28T09:16:07;4.50;52.20
48043;DHT22;33988;47.992;8.820;2023-02-28T09:18:38;4.50;52.30
48043;DHT22;33988;47.992;8.820;2023-02-28T09:21:07;4.50;52.30
48043;DHT22;33988;47.992;8.820;2023-02-28T09:23:37;4.50;52.20
48043;DHT22;33988;47.992;8.820;2023-02-28T09:26:05;4.60;52.20
48043;DHT22;33988;47.992;8.820;2023-02-28T09:28:37;4.60;52.20
48043;DHT22;33988;47.992;8.820;2023-02-28T09:31:10;4.60;52.20
48043;DHT22;33988;47.992;8.820;2023-02-28T09:33:39;4.70;52.20
48043;DHT22;33988;47.992;8.820;2023-02-28T09:36:06;4.70;52.10
48043;DHT22;33988;47.992;8.820;2023-02-28T09:38:36;4.70;52.20
48043;DHT22;33988;47.992;8.820;2023-02-28T09:41:10;4.70;52.10
48043;DHT22;33988;47.992;8.820;2023-02-28T09:43:45;4.70;52.10
48043;DHT22;33988;47.992;8.820;2023-02-28T09:46:29;4.70;52.10
48043;DHT22;33988;47.992;8.820;2023-02-28T09:49:22;4.70;52.10
48043;DHT22;33988;47.992;8.820;2023-02-28T09:52:00;4.70;52.00
48043;DHT22;33988;47.992;8.820;2023-02-28T09:54:32;4.70;52.00
48043;DHT22;33988;47.992;8.820;2023-02-28T09:57:06;4.70;52.00
48043;DHT22;33988;47.992;8.820;2023-02-28T10:00:54;4.80;52.10
48043;DHT22;33988;47.992;8.820;2023-02-28T10:05:59;4.70;52.00
48043;DHT22;33988;47.992;8.820;2023-02-28T10:09:22;4.70;52.00
48043;DHT22;33988;47.992;8.820;2023-02-28T10:11:25;4.70;52.00
48043;DHT22;33988;47.992;8.820;2023-02-28T10:14:00;4.70;52.00
48043;DHT22;33988;47.992;8.820;2023-02-28T10:16:50;4.70;51.90
48043;DHT22;33988;47.992;8.820;2023-02-28T10:19:41;4.70;52.00
48043;DHT22;33988;47.992;8.820;2023-02-28T10:24:51;4.80;52.20
48043;DHT22;33988;47.992;8.820;2023-02-28T10:27:25;4.80;52.20
48043;DHT22;33988;47.992;8.820;2023-02-28T10:30:02;4.90;52.30
48043;DHT22;33988;47.992;8.820;2023-02-28T10:32:38;4.90;52.80
48043;DHT22;33988;47.992;8.820;2023-02-28T10:37:40;5.00;52.10
48043;DHT22;33988;47.992;8.820;2023-02-28T10:45:34;5.00;51.90
48043;DHT22;33988;47.992;8.820;2023-02-28T10:48:24;5.10;51.90
48043;DHT22;33988;47.992;8.820;2023-02-28T10:50:57;5.10;51.80
48043;DHT22;33988;47.992;8.820;2023-02-28T10:56:24;5.10;51.80
48043;DHT22;33988;47.992;8.820;2023-02-28T10:59:03;5.20;51.90
48043;DHT22;33988;47.992;8.820;2023-02-28T11:01:49;5.20;51.80
48043;DHT22;33988;47.992;8.820;2023-02-28T11:07:09;5.20;51.80
48043;DHT22;33988;47.992;8.820;2023-02-28T11:09:52;5.30;51.80
48043;DHT22;33988;47.992;8.820;2023-02-28T11:14:58;5.30;51.70
48043;DHT22;33988;47.992;8.820;2023-02-28T11:17:31;5.30;52.30
48043;DHT22;33988;47.992;8.820;2023-02-28T11:20:05;5.40;51.80
48043;DHT22;33988;47.992;8.820;2023-02-28T11:22:37;5.40;51.70
48043;DHT22;33988;47.992;8.820;2023-02-28T11:25:20;5.40;52.40
48043;DHT22;33988;47.992;8.820;2023-02-28T11:27:54;5.40;51.70
48043;DHT22;33988;47.992;8.820;2023-02-28T11:33:20;5.50;51.60
48043;DHT22;33988;47.992;8.820;2023-02-28T11:35:50;5.50;51.60
48043;DHT22;33988;47.992;8.820;2023-02-28T11:38:20;5.60;51.70
48043;DHT22;33988;47.992;8.820;2023-02-28T11:46:17;5.60;52.20
48043;DHT22;33988;47.992;8.820;2023-02-28T11:49:01;5.70;51.60
48043;DHT22;33988;47.992;8.820;2023-02-28T11:57:31;5.80;51.40
48043;DHT22;33988;47.992;8.820;2023-02-28T12:06:35;5.90;51.40
48043;DHT22;33988;47.992;8.820;2023-02-28T12:08:49;5.90;51.30
48043;DHT22;33988;47.992;8.820;2023-02-28T12:11:51;5.90;51.20
48043;DHT22;33988;47.992;8.820;2023-02-28T12:17:47;5.90;51.00
48043;DHT22;33988;47.992;8.820;2023-02-28T12:20:38;6.00;51.10
48043;DHT22;33988;47.992;8.820;2023-02-28T12:28:49;6.00;51.00
48043;DHT22;33988;47.992;8.820;2023-02-28T12:31:28;6.00;51.00
48043;DHT22;33988;47.992;8.820;2023-02-28T12:34:03;6.10;50.90
48043;DHT22;33988;47.992;8.820;2023-02-28T12:36:34;6.10;51.00
48043;DHT22;33988;47.992;8.820;2023-02-28T12:42:36;6.10;50.90
48043;DHT22;33988;47.992;8.820;2023-02-28T12:48:13;6.20;50.80
48043;DHT22;33988;47.992;8.820;2023-02-28T12:50:45;6.20;50.80
48043;DHT22;33988;47.992;8.820;2023-02-28T12:56:27;6.30;50.60
48043;DHT22;33988;47.992;8.820;2023-02-28T12:59:27;6.30;50.60
48043;DHT22;33988;47.992;8.820;2023-02-28T13:14:25;6.20;50.50
48043;DHT22;33988;47.992;8.820;2023-02-28T13:17:09;6.30;50.60
48043;DHT22;33988;47.992;8.820;2023-02-28T13:19:45;6.30;50.60
48043;DHT22;33988;47.992;8.820;2023-02-28T13:24:53;6.40;50.60
48043;DHT22;33988;47.992;8.820;2023-02-28T13:27:33;6.40;50.60
48043;DHT22;33988;47.992;8.820;2023-02-28T13:49:31;6.70;50.00
48043;DHT22;33988;47.992;8.820;2023-02-28T14:08:58;6.90;49.80
48043;DHT22;33988;47.992;8.820;2023-02-28T14:11:44;6.90;49.80
48043;DHT22;33988;47.992;8.820;2023-02-28T14:17:05;7.00;49.70
48043;DHT22;33988;47.992;8.820;2023-02-28T14:19:37;7.00;49.80
48043;DHT22;33988;47.992;8.820;2023-02-28T14:36:26;7.20;49.50
48043;DHT22;33988;47.992;8.820;2023-02-28T14:39:01;7.30;49.40
48043;DHT22;33988;47.992;8.820;2023-02-28T14:41:37;7.30;49.40
48043;DHT22;33988;47.992;8.820;2023-02-28T14:44:22;7.30;49.20
48043;DHT22;33988;47.992;8.820;2023-02-28T14:47:01;7.40;49.10
48043;DHT22;33988;47.992;8.820;2023-02-28T14:49:41;7.30;49.10
48043;DHT22;33988;47.992;8.820;2023-02-28T14:54:37;7.30;49.20
48043;DHT22;33988;47.992;8.820;2023-02-28T14:57:30;7.40;49.30
48043;DHT22;33988;47.992;8.820;2023-02-28T15:02:38;7.30;49.30
48043;DHT22;33988;47.992;8.820;2023-02-28T15:07:45;7.40;49.20
48043;DHT22;33988;47.992;8.820;2023-02-28T15:10:20;7.40;49.20
48043;DHT22;33988;47.992;8.820;2023-02-28T15:12:59;7.20;49.00
48043;DHT22;33988;47.992;8.820;2023-02-28T15:18:48;7.30;49.00
48043;DHT22;33988;47.992;8.820;2023-02-28T15:26:55;7.30;49.60
48043;DHT22;33988;47.992;8.820;2023-02-28T15:29:27;7.30;49.00
48043;DHT22;33988;47.992;8.820;2023-02-28T15:34:38;7.30;49.00
48043;DHT22;33988;47.992;8.820;2023-02-28T15:37:47;7.30;49.10
48043;DHT22;33988;47.992;8.820;2023-02-28T15:40:38;7.20;49.00
48043;DHT22;33988;47.992;8.820;2023-02-28T15:43:18;7.20;49.10
48043;DHT22;33988;47.992;8.820;2023-02-28T15:46:12;7.20;49.00
48043;DHT22;33988;47.992;8.820;2023-02-28T15:48:59;7.20;49.10
48043;DHT22;33988;47.992;8.820;2023-02-28T15:51:36;7.20;49.10
48043;DHT22;33988;47.992;8.820;2023-02-28T15:54:10;7.20;49.10
48043;DHT22;33988;47.992;8.820;2023-02-28T15:56:46;7.20;49.10
48043;DHT22;33988;47.992;8.820;2023-02-28T15:59:19;7.20;49.10
48043;DHT22;33988;47.992;8.820;2023-02-28T16:02:15;7.20;49.20
48043;DHT22;33988;47.992;8.820;2023-02-28T16:05:22;7.10;49.00
48043;DHT22;33988;47.992;8.820;2023-02-28T16:08:15;7.10;48.90
48043;DHT22;33988;47.992;8.820;2023-02-28T16:10:42;7.00;49.10
48043;DHT22;33988;47.992;8.820;2023-02-28T16:13:12;7.00;49.20
48043;DHT22;33988;47.992;8.820;2023-02-28T16:15:46;7.10;49.20
48043;DHT22;33988;47.992;8.820;2023-02-28T16:18:18;7.00;49.20
48043;DHT22;33988;47.992;8.820;2023-02-28T16:20:45;7.00;49.20
48043;DHT22;33988;47.992;8.820;2023-02-28T16:23:11;7.00;49.20
48043;DHT22;33988;47.992;8.820;2023-02-28T16:25:42;7.00;49.30
48043;DHT22;33988;47.992;8.820;2023-02-28T16:28:19;7.00;49.40
48043;DHT22;33988;47.992;8.820;2023-02-28T16:30:48;7.00;49.50
48043;DHT22;33988;47.992;8.820;2023-02-28T16:33:18;7.00;49.50
48043;DHT22;33988;47.992;8.820;2023-02-28T16:35:45;7.00;49.40
48043;DHT22;33988;47.992;8.820;2023-02-28T16:38:14;6.90;49.50
48043;DHT22;33988;47.992;8.820;2023-02-28T16:40:41;7.00;49.60
48043;DHT22;33988;47.992;8.820;2023-02-28T16:43:17;6.90;49.50
48043;DHT22;33988;47.992;8.820;2023-02-28T16:45:46;6.90;49.50
48043;DHT22;33988;47.992;8.820;2023-02-28T16:48:15;6.90;49.40
48043;DHT22;33988;47.992;8.820;2023-02-28T16:50:42;6.90;49.50
48043;DHT22;33988;47.992;8.820;2023-02-28T16:53:12;6.90;49.50
48043;DHT22;33988;47.992;8.820;2023-02-28T16:55:40;6.80;49.50
48043;DHT22;33988;47.992;8.820;2023-02-28T16:58:14;6.80;49.50
48043;DHT22;33988;47.992;8.820;2023-02-28T17:00:42;6.80;49.60
48043;DHT22;33988;47.992;8.820;2023-02-28T17:03:25;6.80;49.60
48043;DHT22;33988;47.992;8.820;2023-02-28T17:06:02;6.70;49.50
48043;DHT22;33988;47.992;8.820;2023-02-28T17:08:30;6.70;49.50
48043;DHT22;33988;47.992;8.820;2023-02-28T17:10:59;6.70;49.50
48043;DHT22;33988;47.992;8.820;2023-02-28T17:13:29;6.70;49.50
48043;DHT22;33988;47.992;8.820;2023-02-28T17:15:56;6.60;49.60
48043;DHT22;33988;47.992;8.820;2023-02-28T17:18:23;6.60;49.60
48043;DHT22;33988;47.992;8.820;2023-02-28T17:20:55;6.50;49.60
48043;DHT22;33988;47.992;8.820;2023-02-28T17:23:22;6.60;49.70
48043;DHT22;33988;47.992;8.820;2023-02-28T17:25:49;6.50;49.80
48043;DHT22;33988;47.992;8.820;2023-02-28T17:28:24;6.50;49.90
48043;DHT22;33988;47.992;8.820;2023-02-28T17:30:51;6.50;49.90
48043;DHT22;33988;47.992;8.820;2023-02-28T17:33:18;6.50;49.90
48043;DHT22;33988;47.992;8.820;2023-02-28T17:35:50;6.50;49.90
48043;DHT22;33988;47.992;8.820;2023-02-28T17:38:19;6.50;50.00
48043;DHT22;33988;47.992;8.820;2023-02-28T17:40:54;6.50;50.00
48043;DHT22;33988;47.992;8.820;2023-02-28T17:43:27;6.50;50.00
48043;DHT22;33988;47.992;8.820;2023-02-28T17:45:57;6.50;50.00
48043;DHT22;33988;47.992;8.820;2023-02-28T17:48:25;6.50;50.10
48043;DHT22;33988;47.992;8.820;2023-02-28T17:50:52;6.50;50.10
48043;DHT22;33988;47.992;8.820;2023-02-28T17:53:21;6.50;50.10
48043;DHT22;33988;47.992;8.820;2023-02-28T17:55:50;6.50;50.20
48043;DHT22;33988;47.992;8.820;2023-02-28T17:58:17;6.50;50.20
48043;DHT22;33988;47.992;8.820;2023-02-28T18:00:45;6.50;50.20
48043;DHT22;33988;47.992;8.820;2023-02-28T18:03:22;6.50;50.20
48043;DHT22;33988;47.992;8.820;2023-02-28T18:05:50;6.50;50.20
48043;DHT22;33988;47.992;8.820;2023-02-28T18:08:20;6.50;50.30
48043;DHT22;33988;47.992;8.820;2023-02-28T18:10:46;6.40;50.30
48043;DHT22;33988;47.992;8.820;2023-02-28T18:13:13;6.50;50.30
48043;DHT22;33988;47.992;8.820;2023-02-28T18:15:40;6.40;50.30
48043;DHT22;33988;47.992;8.820;2023-02-28T18:18:07;6.40;50.30
48043;DHT22;33988;47.992;8.820;2023-02-28T18:20:35;6.40;50.40
48043;DHT22;33988;47.992;8.820;2023-02-28T18:23:02;6.40;50.40
48043;DHT22;33988;47.992;8.820;2023-02-28T18:25:29;6.30;50.40
48043;DHT22;33988;47.992;8.820;2023-02-28T18:27:56;6.30;50.50
48043;DHT22;33988;47.992;8.820;2023-02-28T18:30:29;6.30;50.50
48043;DHT22;33988;47.992;8.820;2023-02-28T18:32:58;6.20;50.50
48043;DHT22;33988;47.992;8.820;2023-02-28T18:35:27;6.20;50.50
48043;DHT22;33988;47.992;8.820;2023-02-28T18:38:14;6.10;50.50
48043;DHT22;33988;47.992;8.820;2023-02-28T18:40:52;6.10;50.60
48043;DHT22;33988;47.992;8.820;2023-02-28T18:43:22;6.00;50.70
48043;DHT22;33988;47.992;8.820;2023-02-28T18:45:51;6.00;50.70
48043;DHT22;33988;47.992;8.820;2023-02-28T18:48:18;6.00;50.70
48043;DHT22;33988;47.992;8.820;2023-02-28T18:50:46;5.90;50.70
48043;DHT22;33988;47.992;8.820;2023-02-28T18:53:13;5.90;50.80
48043;DHT22;33988;47.992;8.820;2023-02-28T18:55:42;5.80;50.80
48043;DHT22;33988;47.992;8.820;2023-02-28T18:58:09;5.80;50.80
48043;DHT22;33988;47.992;8.820;2023-02-28T19:00:36;5.80;50.90
48043;DHT22;33988;47.992;8.820;2023-02-28T19:03:04;5.70;51.00
48043;DHT22;33988;47.992;8.820;2023-02-28T19:05:30;5.70;51.00
48043;DHT22;33988;47.992;8.820;2023-02-28T19:08:03;5.60;51.00
48043;DHT22;33988;47.992;8.820;2023-02-28T19:10:30;5.60;51.10
48043;DHT22;33988;47.992;8.820;2023-02-28T19:12:57;5.60;51.10
48043;DHT22;33988;47.992;8.820;2023-02-28T19:15:24;5.60;51.10
48043;DHT22;33988;47.992;8.820;2023-02-28T19:17:53;5.50;51.10
48043;DHT22;33988;47.992;8.820;2023-02-28T19:20:23;5.50;51.20
48043;DHT22;33988;47.992;8.820;2023-02-28T19:22:52;5.40;51.10